Time;durP1;ratioP1;P1;durP2;ratioP2;P2;SDS_P1;SDS_P2;PMS_P1;PMS_P2;Temp;Humidity;BMP_temperature;BMP_pressure;BME280_temperature;BME280_humidity;BME280_pressure;Samples;Min_cycle;Max_cycle;Signal;HPM_P1;HPM_P2
2021/04/20 00:02:18;;;;;;;21.57;15.83;;;;;;;5.94;98.83;100487.08;653237;217;24762;-75
2021/04/20 00:04:46;;;;;;;19.52;15.70;;;;;;;6.35;95.81;100484.11;649479;217;32579;-75
2021/04/20 00:07:14;;;;;;;21.10;16.03;;;;;;;5.90;96.56;100489.49;651317;217;23677;-75
2021/04/20 00:09:41;;;;;;;18.00;14.53;;;;;;;5.81;97.15;100485.80;654066;217;24790;-75
2021/04/20 00:12:10;;;;;;;17.03;14.17;;;;;;;5.83;97.36;100490.38;656373;217;24787;-75
2021/04/20 00:14:38;;;;;;;22.50;16.20;;;;;;;5.81;99.80;100488.37;651369;217;24837;-74
2021/04/20 00:17:06;;;;;;;27.32;20.12;;;;;;;6.35;97.68;100486.70;645266;217;32577;-75
2021/04/20 00:19:35;;;;;;;20.50;15.50;;;;;;;5.79;97.37;100477.34;650184;217;23660;-75
2021/04/20 00:22:02;;;;;;;20.80;16.03;;;;;;;5.62;97.54;100475.91;653253;217;24794;-75
2021/04/20 00:24:30;;;;;;;20.03;14.33;;;;;;;5.50;98.54;100478.55;652496;217;24826;-75
2021/04/20 00:26:58;;;;;;;19.57;14.20;;;;;;;5.40;99.24;100474.48;655410;216;25022;-75
2021/04/20 00:29:27;;;;;;;19.77;13.77;;;;;;;5.34;97.93;100470.55;651717;217;24777;-75
2021/04/20 00:31:54;;;;;;;18.80;14.33;;;;;;;5.29;100.00;100476.97;658914;217;24761;-76
2021/04/20 00:34:22;;;;;;;20.60;14.60;;;;;;;5.41;99.40;100477.88;658337;217;25193;-75
2021/04/20 00:36:50;;;;;;;14.53;12.37;;;;;;;5.47;98.67;100468.42;652637;217;24740;-75
2021/04/20 00:39:18;;;;;;;17.80;13.97;;;;;;;5.38;98.42;100470.36;651937;217;24801;-75
2021/04/20 00:41:46;;;;;;;18.10;13.87;;;;;;;5.23;99.82;100471.77;653322;217;24794;-75
2021/04/20 00:44:14;;;;;;;17.47;13.20;;;;;;;5.32;100.00;100465.97;657216;217;24795;-74
2021/04/20 00:46:42;;;;;;;18.07;15.20;;;;;;;5.41;99.96;100468.86;656256;217;27005;-75
2021/04/20 00:49:09;;;;;;;20.65;16.75;;;;;;;5.96;96.54;100458.11;645893;217;32769;-75
2021/04/20 00:51:37;;;;;;;18.40;16.40;;;;;;;6.27;94.69;100449.44;648331;217;43272;-75
2021/04/20 00:54:06;;;;;;;18.53;15.30;;;;;;;5.65;96.23;100449.92;649800;217;23661;-75
2021/04/20 00:56:34;;;;;;;15.77;13.27;;;;;;;5.42;96.77;100451.16;648815;217;24775;-75
2021/04/20 00:59:02;;;;;;;13.30;11.83;;;;;;;5.38;97.24;100457.47;655665;215;24750;-76
2021/04/20 01:01:30;;;;;;;12.43;10.83;;;;;;;5.33;96.97;100449.56;653671;217;24761;-75
2021/04/20 01:03:58;;;;;;;18.60;12.70;;;;;;;5.35;96.35;100446.91;660182;217;24756;-75
2021/04/20 01:06:26;;;;;;;14.40;11.80;;;;;;;5.41;95.85;100445.18;654207;217;24787;-75
2021/04/20 01:08:54;;;;;;;17.57;13.00;;;;;;;5.48;96.35;100444.27;657179;217;26939;-75
2021/04/20 01:11:22;;;;;;;15.00;12.60;;;;;;;5.47;95.62;100436.18;659542;217;24771;-76
2021/04/20 01:13:50;;;;;;;16.10;12.90;;;;;;;5.10;95.76;100442.59;654995;217;24830;-75
2021/04/20 01:16:20;;;;;;;16.30;13.70;;;;;;;4.89;97.62;100450.48;654693;217;24794;-76
2021/04/20 01:18:48;;;;;;;17.70;13.30;;;;;;;4.91;97.51;100452.02;641788;222;24817;-75
2021/04/20 01:21:16;;;;;;;15.37;12.73;;;;;;;4.96;97.66;100456.89;652606;217;24799;-75
2021/04/20 01:23:49;;;;;;;16.70;12.00;;;;;;;4.87;98.03;100451.05;652821;218;24765;-76
2021/04/20 01:26:18;;;;;;;17.17;13.50;;;;;;;4.85;99.10;100460.64;636538;222;26936;-75
2021/04/20 01:28:46;;;;;;;17.40;12.60;;;;;;;4.92;98.18;100455.42;646270;218;24831;-75
2021/04/20 01:31:14;;;;;;;15.60;11.90;;;;;;;4.86;98.18;100457.13;637631;222;24854;-75
2021/04/20 01:33:42;;;;;;;15.90;12.60;;;;;;;4.89;98.55;100455.16;650586;217;24775;-76
2021/04/20 01:36:10;;;;;;;19.90;14.60;;;;;;;4.98;98.41;100455.02;648294;219;24801;-75
2021/04/20 01:38:39;;;;;;;24.50;18.60;;;;;;;5.62;96.29;100450.11;641654;218;43257;-75
2021/04/20 01:41:06;;;;;;;19.13;15.07;;;;;;;5.12;97.04;100450.23;660601;216;24815;-75
2021/04/20 01:43:34;;;;;;;18.30;14.40;;;;;;;4.93;96.61;100450.19;644181;220;24899;-75
2021/04/20 01:46:02;;;;;;;20.60;15.90;;;;;;;4.87;96.85;100452.34;644416;221;24800;-75
2021/04/20 01:48:30;;;;;;;17.53;13.53;;;;;;;4.76;96.89;100459.48;641681;220;24812;-75
2021/04/20 01:50:58;;;;;;;14.47;11.83;;;;;;;4.60;97.77;100453.70;649070;221;24871;-75
2021/04/20 01:53:26;;;;;;;18.98;16.30;;;;;;;5.27;95.53;100442.27;635546;222;32849;-75
2021/04/20 01:55:58;;;;;;;22.43;17.33;;;;;;;4.82;95.97;100447.97;646421;221;23961;-74
2021/04/20 01:58:26;;;;;;;16.20;13.70;;;;;;;4.67;96.55;100447.23;642275;221;24797;-75
2021/04/20 02:00:54;;;;;;;44.40;11.87;;;;;;;4.56;96.62;100449.69;642300;220;24908;-75
2021/04/20 02:03:22;;;;;;;36.53;12.90;;;;;;;4.63;96.52;100444.48;647439;217;25001;-75
2021/04/20 02:05:50;;;;;;;17.32;14.13;;;;;;;5.22;95.28;100444.81;636445;221;43478;-77
2021/04/20 02:08:18;;;;;;;18.70;15.00;;;;;;;4.66;95.31;100442.55;649651;218;23662;-75
2021/04/20 02:10:46;;;;;;;18.83;14.53;;;;;;;4.58;96.00;100440.93;648099;219;24768;-75
2021/04/20 02:13:14;;;;;;;15.10;13.33;;;;;;;4.52;95.62;100438.77;640803;221;24817;-75
2021/04/20 02:15:42;;;;;;;17.27;13.20;;;;;;;4.45;97.00;100445.23;652076;218;24805;-75
2021/04/20 02:18:10;;;;;;;17.45;15.43;;;;;;;5.13;94.10;100432.07;640722;222;32789;-75
2021/04/20 02:20:38;;;;;;;18.15;16.12;;;;;;;5.40;93.75;100424.66;637192;221;32777;-76
2021/04/20 02:23:06;;;;;;;16.00;12.80;;;;;;;4.75;94.44;100429.50;641262;221;23709;-75
2021/04/20 02:25:34;;;;;;;14.03;10.27;;;;;;;4.62;94.63;100441.08;637308;221;24938;-75
2021/04/20 02:28:01;;;;;;;18.27;11.90;;;;;;;4.41;94.76;100433.50;638790;222;25106;-75
2021/04/20 02:30:29;;;;;;;14.43;12.20;;;;;;;4.88;92.47;100421.78;652746;217;43331;-75
2021/04/20 02:32:57;;;;;;;14.00;11.30;;;;;;;4.30;94.27;100426.92;646476;218;24764;-75
2021/04/20 02:35:25;;;;;;;17.10;14.10;;;;;;;4.25;95.23;100429.81;642336;222;25936;-76
2021/04/20 02:37:53;;;;;;;14.37;11.47;;;;;;;4.07;95.43;100429.69;646228;218;24777;-76
2021/04/20 02:40:21;;;;;;;14.60;12.07;;;;;;;3.90;95.50;100429.48;643937;219;25048;-74
2021/04/20 02:42:50;;;;;;;13.00;11.68;;;;;;;4.51;93.02;100426.00;639922;218;32677;-75
2021/04/20 02:45:18;;;;;;;10.20;9.13;;;;;;;3.66;95.63;100433.58;644366;218;24756;-75
2021/04/20 02:47:46;;;;;;;14.17;10.80;;;;;;;3.61;96.09;100441.59;651776;217;24837;-75
2021/04/20 02:50:14;;;;;;;12.30;10.50;;;;;;;3.51;96.56;100441.79;649845;219;26301;-75
2021/04/20 02:52:42;;;;;;;13.60;12.10;;;;;;;4.22;93.86;100421.44;637017;221;32752;-75
2021/04/20 02:55:11;;;;;;;13.90;11.03;;;;;;;3.86;94.44;100428.86;640350;222;23671;-76
2021/04/20 02:57:39;;;;;;;13.13;10.37;;;;;;;3.81;94.80;100432.19;641976;221;25470;-75
2021/04/20 03:00:08;;;;;;;10.13;9.07;;;;;;;3.89;95.62;100438.13;650303;217;24762;-75
2021/04/20 03:02:37;;;;;;;13.60;11.70;;;;;;;3.86;94.81;100431.89;652166;217;24759;-74
2021/04/20 03:05:06;;;;;;;17.33;11.70;;;;;;;3.77;94.95;100429.42;648023;217;24764;-75
2021/04/20 03:07:35;;;;;;;17.27;13.20;;;;;;;3.63;94.77;100431.21;640171;222;24942;-75
2021/04/20 03:10:03;;;;;;;19.53;14.07;;;;;;;3.67;94.33;100428.84;642681;221;24805;-75
2021/04/20 03:12:31;;;;;;;19.37;12.90;;;;;;;3.37;93.63;100423.81;653303;218;24800;-75
2021/04/20 03:15:00;;;;;;;17.37;12.50;;;;;;;3.26;93.33;100420.18;653173;218;24758;-75
2021/04/20 03:17:28;;;;;;;16.57;12.43;;;;;;;3.10;94.79;100428.91;649884;219;24767;-75
2021/04/20 03:19:56;;;;;;;18.00;12.50;;;;;;;2.98;93.93;100424.87;641250;221;24828;-75
2021/04/20 03:22:24;;;;;;;17.40;12.47;;;;;;;2.77;94.54;100427.41;644844;222;24875;-75
2021/04/20 03:25:17;;;;;;;20.73;12.13;;;;;;;2.62;96.84;100443.71;651509;218;24790;-75
2021/04/20 03:27:45;;;;;;;27.43;14.87;;;;;;;2.82;96.93;100440.83;637462;221;24805;-75
2021/04/20 03:30:13;;;;;;;19.67;13.83;;;;;;;2.89;98.18;100445.12;637710;222;24861;-75
2021/04/20 03:32:41;;;;;;;25.10;18.20;;;;;;;3.52;97.02;100444.30;641806;222;32767;-75
2021/04/20 03:35:10;;;;;;;24.60;18.80;;;;;;;3.93;93.88;100432.31;644354;217;32580;-75
2021/04/20 03:37:38;;;;;;;19.97;15.20;;;;;;;3.35;94.95;100431.62;652597;218;23662;-75
2021/04/20 03:40:06;;;;;;;21.07;15.47;;;;;;;3.09;96.44;100438.33;659593;217;24778;-75
2021/04/20 03:42:35;;;;;;;18.87;13.70;;;;;;;3.40;95.58;100433.94;650281;220;24881;-75
2021/04/20 03:45:03;;;;;;;46.70;17.82;;;;;;;3.91;92.13;100427.27;635875;221;32819;-75
2021/04/20 03:47:32;;;;;;;27.60;15.90;;;;;;;3.36;93.15;100422.98;637059;223;23718;-75
2021/04/20 03:50:00;;;;;;;20.90;13.67;;;;;;;3.24;94.42;100427.16;644275;222;24830;-75
2021/04/20 03:52:28;;;;;;;24.00;15.73;;;;;;;3.39;94.61;100430.54;652973;217;24756;-75
2021/04/20 03:54:56;;;;;;;28.50;15.13;;;;;;;3.27;95.07;100428.71;649880;218;27939;-75
2021/04/20 03:57:24;;;;;;;37.20;14.93;;;;;;;3.34;94.83;100424.83;647824;218;24740;-75
2021/04/20 03:59:52;;;;;;;18.97;13.57;;;;;;;3.13;94.93;100424.87;647462;219;24768;-73
2021/04/20 04:02:20;;;;;;;36.63;13.80;;;;;;;2.86;94.92;100424.77;655221;215;25895;-75
2021/04/20 04:04:47;;;;;;;49.70;14.57;;;;;;;3.00;95.00;100430.37;654715;218;26961;-75
2021/04/20 04:07:16;;;;;;;28.10;14.60;;;;;;;2.77;95.38;100429.98;641578;221;24807;-75
2021/04/20 04:09:44;;;;;;;15.93;12.73;;;;;;;2.54;96.73;100438.21;654450;218;24785;-75
2021/04/20 04:12:12;;;;;;;15.83;12.63;;;;;;;2.62;97.37;100439.41;640604;221;26027;-75
2021/04/20 04:14:40;;;;;;;20.08;16.32;;;;;;;3.14;96.95;100435.05;646217;218;32629;-75
2021/04/20 04:17:08;;;;;;;15.77;13.40;;;;;;;2.84;97.33;100430.00;646941;221;23649;-74
2021/04/20 04:19:38;;;;;;;18.57;15.20;;;;;;;3.36;96.46;100429.41;650177;217;43335;-74
2021/04/20 04:22:05;;;;;;;17.20;13.37;;;;;;;3.15;97.61;100435.41;646149;222;24729;-75
2021/04/20 04:24:34;;;;;;;16.00;13.30;;;;;;;3.22;98.26;100435.86;651453;219;24810;-75
2021/04/20 04:27:04;;;;;;;17.42;15.28;;;;;;;3.86;95.72;100432.72;632097;222;32870;-73
2021/04/20 04:29:32;;;;;;;18.00;14.60;;;;;;;3.65;96.54;100426.79;637339;221;23682;-73
2021/04/20 04:32:00;;;;;;;24.93;14.27;;;;;;;3.50;98.67;100435.82;656928;217;24879;-73
2021/04/20 04:34:28;;;;;;;16.93;12.63;;;;;;;3.38;99.58;100441.74;645922;221;24825;-74
2021/04/20 04:36:56;;;;;;;14.80;10.80;;;;;;;3.40;100.00;100442.93;646586;218;24782;-75
2021/04/20 04:39:24;;;;;;;23.98;15.70;;;;;;;3.80;100.00;100442.55;635960;222;32787;-73
2021/04/20 04:41:51;;;;;;;15.93;13.27;;;;;;;3.49;100.00;100443.17;641299;222;23667;-73
2021/04/20 04:44:19;;;;;;;24.73;12.07;;;;;;;3.67;100.00;100450.70;652742;217;24760;-74
2021/04/20 04:46:47;;;;;;;22.13;12.30;;;;;;;3.65;100.00;100448.65;650606;217;24773;-75
2021/04/20 04:49:15;;;;;;;29.50;11.03;;;;;;;3.76;100.00;100447.53;660574;217;24796;-75
2021/04/20 04:51:43;;;;;;;24.27;10.53;;;;;;;3.64;100.00;100447.00;659493;217;24760;-75
2021/04/20 04:54:11;;;;;;;51.60;10.80;;;;;;;3.74;100.00;100445.52;653758;218;24746;-75
2021/04/20 04:56:40;;;;;;;47.20;11.73;;;;;;;3.73;100.00;100443.87;644373;222;24824;-75
2021/04/20 04:59:08;;;;;;;43.47;11.47;;;;;;;3.56;100.00;100443.17;644048;220;24786;-73
2021/04/20 05:01:37;;;;;;;17.40;9.50;;;;;;;3.57;100.00;100444.83;641331;222;24833;-74
2021/04/20 05:04:07;;;;;;;41.57;11.57;;;;;;;3.76;100.00;100447.53;636989;222;24836;-74
2021/04/20 05:06:35;;;;;;;14.07;9.40;;;;;;;3.69;100.00;100443.70;638341;222;24801;-74
2021/04/20 05:09:08;;;;;;;31.23;10.53;;;;;;;3.63;100.00;100442.78;635924;222;24793;-73
2021/04/20 05:11:37;;;;;;;20.20;9.63;;;;;;;3.60;100.00;100444.27;637652;221;24787;-73
2021/04/20 05:14:04;;;;;;;14.53;10.30;;;;;;;3.57;100.00;100440.14;646397;220;28008;-73
2021/04/20 05:16:33;;;;;;;12.80;9.80;;;;;;;3.66;100.00;100444.73;648442;221;24814;-73
2021/04/20 05:19:02;;;;;;;30.03;11.67;;;;;;;3.92;100.00;100448.67;640110;221;24818;-73
2021/04/20 05:21:30;;;;;;;16.10;13.03;;;;;;;4.39;100.00;100437.92;646104;218;32600;-73
2021/04/20 05:23:59;;;;;;;33.70;14.60;;;;;;;4.72;98.29;100440.84;644633;218;32645;-74
2021/04/20 05:26:27;;;;;;;24.73;12.13;;;;;;;4.40;99.56;100446.01;626807;226;23713;-73
2021/04/20 05:28:55;;;;;;;49.73;13.67;;;;;;;4.48;100.00;100451.00;655476;217;27970;-73
2021/04/20 05:31:23;;;;;;;21.70;13.10;;;;;;;4.23;100.00;100450.14;650275;219;24756;-73
2021/04/20 05:33:56;;;;;;;46.53;13.53;;;;;;;4.38;100.00;100454.30;651019;218;24807;-74
2021/04/20 05:36:24;;;;;;;24.52;14.95;;;;;;;4.87;98.64;100456.20;644924;218;43284;-73
2021/04/20 05:38:52;;;;;;;14.33;11.43;;;;;;;4.78;100.00;100449.90;652134;217;24806;-73
2021/04/20 05:41:24;;;;;;;22.98;15.75;;;;;;;5.52;97.70;100441.86;637565;221;33170;-74
2021/04/20 05:43:52;;;;;;;36.30;16.97;;;;;;;5.74;96.08;100444.56;636846;220;32834;-73
2021/04/20 05:46:20;;;;;;;71.00;15.47;;;;;;;5.32;96.50;100450.50;646297;220;23670;-74
2021/04/20 05:48:48;;;;;;;93.73;14.10;;;;;;;5.06;97.30;100451.45;658254;217;24808;-73
2021/04/20 05:51:17;;;;;;;16.60;13.57;;;;;;;5.38;98.67;100452.31;645383;221;24870;-73
2021/04/20 05:53:46;;;;;;;20.90;16.42;;;;;;;5.95;96.42;100451.30;649002;217;32631;-73
2021/04/20 05:56:14;;;;;;;15.97;14.00;;;;;;;5.75;96.87;100453.95;640668;221;24813;-74
2021/04/20 05:58:42;;;;;;;17.30;13.63;;;;;;;5.90;96.86;100458.05;653370;218;24742;-73
2021/04/20 06:01:10;;;;;;;15.60;13.10;;;;;;;5.91;96.19;100462.75;652200;217;24760;-74
2021/04/20 06:03:38;;;;;;;14.10;11.70;;;;;;;6.07;96.89;100464.62;640204;222;24862;-73
2021/04/20 06:06:07;;;;;;;11.40;9.97;;;;;;;6.13;95.69;100460.77;646567;218;24774;-73
2021/04/20 06:08:35;;;;;;;11.40;9.83;;;;;;;6.10;97.24;100463.57;646358;218;24854;-73
2021/04/20 06:11:03;;;;;;;16.27;9.77;;;;;;;6.09;97.04;100469.20;645385;219;24770;-74
2021/04/20 06:13:31;;;;;;;16.83;9.93;;;;;;;5.92;97.12;100471.70;648280;218;24810;-74
2021/04/20 06:16:00;;;;;;;24.40;10.20;;;;;;;5.89;97.47;100475.73;642462;218;24770;-73
2021/04/20 06:18:27;;;;;;;14.37;9.30;;;;;;;5.66;97.43;100467.05;640229;221;24791;-73
2021/04/20 06:20:55;;;;;;;11.00;9.80;;;;;;;5.42;99.24;100475.20;643764;221;25500;-74
2021/04/20 06:23:23;;;;;;;22.07;14.30;;;;;;;5.86;98.94;100484.98;631664;223;32742;-74
2021/04/20 06:25:51;;;;;;;27.60;14.13;;;;;;;5.70;100.00;100481.84;643449;221;23676;-73
2021/04/20 06:28:19;;;;;;;28.60;14.90;;;;;;;5.94;100.00;100490.48;636338;221;24793;-73
2021/04/20 06:30:47;;;;;;;38.93;16.60;;;;;;;6.05;100.00;100492.75;636621;221;24808;-73
2021/04/20 06:33:15;;;;;;;61.47;18.90;;;;;;;6.10;100.00;100490.68;637951;221;24822;-74
2021/04/20 06:35:43;;;;;;;62.03;19.07;;;;;;;6.03;100.00;100486.41;640755;221;27997;-73
2021/04/20 06:38:12;;;;;;;70.23;20.80;;;;;;;6.08;100.00;100489.97;637161;222;25863;-73
2021/04/20 06:40:41;;;;;;;57.07;19.37;;;;;;;6.14;100.00;100486.47;642874;221;24815;-73
2021/04/20 06:43:09;;;;;;;64.23;20.23;;;;;;;6.20;100.00;100493.79;635097;221;26985;-74
2021/04/20 06:45:39;;;;;;;78.50;20.47;;;;;;;6.48;100.00;100490.03;641874;220;24823;-74
2021/04/20 06:48:11;;;;;;;25.83;18.97;;;;;;;6.48;100.00;100486.16;639527;221;24802;-73
2021/04/20 06:50:39;;;;;;;68.43;20.90;;;;;;;6.50;100.00;100489.45;643062;220;24801;-73
2021/04/20 06:53:08;;;;;;;95.80;22.20;;;;;;;6.67;100.00;100479.62;642378;221;24771;-73
2021/04/20 06:55:37;;;;;;;93.47;27.22;;;;;;;6.95;100.00;100479.22;649835;217;32574;-73
2021/04/20 06:58:07;;;;;;;76.47;24.53;;;;;;;7.12;100.00;100474.06;639022;221;23695;-75
2021/04/20 07:00:40;;;;;;;111.57;29.57;;;;;;;7.69;99.63;100471.33;636836;222;32768;-74
2021/04/20 07:03:15;;;;;;;70.97;24.50;;;;;;;7.67;98.20;100474.52;647642;222;23693;-74
2021/04/20 07:05:44;;;;;;;35.63;22.10;;;;;;;7.47;96.92;100470.55;645311;222;24793;-73
2021/04/20 07:08:15;;;;;;;72.43;22.23;;;;;;;7.55;98.65;100476.76;643415;221;25160;-74
2021/04/20 07:10:43;;;;;;;70.67;22.47;;;;;;;7.58;99.05;100471.34;636954;222;24816;-73
2021/04/20 07:13:11;;;;;;;64.83;22.10;;;;;;;7.72;98.16;100474.14;646136;220;24799;-73
2021/04/20 07:15:39;;;;;;;32.17;21.53;;;;;;;8.08;98.44;100486.44;641796;221;24812;-73
2021/04/20 07:18:17;;;;;;;44.73;22.80;;;;;;;8.38;97.27;100473.63;643965;222;25150;-74
2021/04/20 07:20:48;;;;;;;71.20;28.35;;;;;;;8.60;95.95;100464.47;636704;222;32755;-73
2021/04/20 07:23:32;;;;;;;64.37;24.60;;;;;;;8.46;96.43;100473.02;650887;218;24775;-73
2021/04/20 07:26:07;;;;;;;35.03;21.87;;;;;;;8.39;95.64;100474.45;655122;217;24829;-74
2021/04/20 07:28:38;;;;;;;43.30;22.60;;;;;;;8.18;97.63;100485.59;642917;221;24867;-74
2021/04/20 07:31:09;;;;;;;43.27;22.40;;;;;;;8.19;97.51;100489.00;644000;222;24772;-73
2021/04/20 07:33:46;;;;;;;38.93;21.37;;;;;;;7.98;98.37;100490.22;657471;217;24842;-74
2021/04/20 07:36:14;;;;;;;45.80;27.60;;;;;;;7.94;99.20;100483.64;635067;221;32792;-74
2021/04/20 07:38:44;;;;;;;43.73;25.07;;;;;;;8.11;100.00;100494.78;641787;220;24823;-73
2021/04/20 07:41:12;;;;;;;48.50;27.00;;;;;;;8.29;100.00;100476.45;637866;221;24793;-73
2021/04/20 07:43:45;;;;;;;68.27;27.07;;;;;;;8.56;100.00;100490.27;653836;217;24822;-73
2021/04/20 07:46:13;;;;;;;53.75;32.67;;;;;;;8.71;98.25;100477.81;636746;221;32636;-73
2021/04/20 07:48:46;;;;;;;44.27;27.63;;;;;;;8.92;97.26;100481.23;644886;221;23664;-73
2021/04/20 07:51:16;;;;;;;51.13;27.53;;;;;;;9.13;98.33;100468.70;644558;220;27999;-73
2021/04/20 07:53:48;;;;;;;41.87;25.20;;;;;;;9.38;95.95;100466.16;641460;221;24800;-73
2021/04/20 07:56:16;;;;;;;52.13;26.47;;;;;;;9.60;95.75;100458.17;648864;220;28003;-73
2021/04/20 07:58:44;;;;;;;47.20;29.53;;;;;;;9.59;93.38;100447.92;638585;221;27257;-74
2021/04/20 08:01:17;;;;;;;57.13;27.60;;;;;;;9.45;94.46;100465.51;643568;221;24833;-74
2021/04/20 08:03:46;;;;;;;45.17;28.97;;;;;;;9.47;95.02;100465.38;644071;221;24858;-73
2021/04/20 08:06:14;;;;;;;49.77;36.08;;;;;;;9.71;94.57;100457.22;645674;217;43265;-74
2021/04/20 08:08:44;;;;;;;46.27;31.10;;;;;;;9.59;93.06;100457.01;641272;221;23688;-73
2021/04/20 08:11:13;;;;;;;50.40;32.00;;;;;;;10.00;94.72;100471.11;639255;222;24799;-74
2021/04/20 08:13:42;;;;;;;49.83;32.70;;;;;;;10.27;93.36;100459.22;640453;221;24801;-74
2021/04/20 08:16:12;;;;;;;46.90;31.60;;;;;;;10.21;93.25;100463.66;628235;226;23866;-74
2021/04/20 08:18:40;;;;;;;51.40;35.78;;;;;;;9.96;92.90;100454.13;633762;221;32750;-73
2021/04/20 08:21:08;;;;;;;48.53;32.17;;;;;;;9.98;94.64;100456.58;640614;221;23701;-73
2021/04/20 08:23:37;;;;;;;46.43;30.83;;;;;;;10.00;93.38;100453.39;639155;222;24807;-74
2021/04/20 08:26:05;;;;;;;49.00;31.30;;;;;;;10.23;93.83;100451.37;644081;221;24870;-73
2021/04/20 08:28:36;;;;;;;48.77;33.03;;;;;;;10.35;95.10;100452.39;637945;221;25917;-74
2021/04/20 08:31:04;;;;;;;50.83;36.13;;;;;;;10.56;92.32;100444.45;640626;222;24801;-73
2021/04/20 08:33:32;;;;;;;50.37;35.40;;;;;;;10.81;91.78;100443.48;644375;221;25058;-74
2021/04/20 08:36:00;;;;;;;50.10;34.50;;;;;;;11.01;90.72;100439.89;642100;222;24816;-73
2021/04/20 08:38:36;;;;;;;51.47;35.67;;;;;;;11.22;90.13;100437.88;650747;218;24739;-74
2021/04/20 08:41:06;;;;;;;50.90;35.03;;;;;;;11.37;90.50;100434.79;639903;222;24829;-73
2021/04/20 08:43:38;;;;;;;43.90;32.27;;;;;;;11.81;86.89;100423.58;651083;217;23807;-74
2021/04/20 08:46:07;;;;;;;42.27;29.50;;;;;;;12.13;84.72;100412.66;650278;218;24745;-74
2021/04/20 08:48:39;;;;;;;41.87;28.20;;;;;;;12.36;83.25;100406.46;646510;218;24791;-74
2021/04/20 08:51:09;;;;;;;42.78;33.48;;;;;;;12.56;81.00;100399.77;629000;221;32715;-74
2021/04/20 08:53:42;;;;;;;34.10;27.90;;;;;;;12.50;81.87;100402.48;656475;217;23665;-73
2021/04/20 08:56:11;;;;;;;40.40;28.93;;;;;;;12.61;80.01;100396.20;656876;217;24786;-74
2021/04/20 08:58:48;;;;;;;42.97;31.47;;;;;;;12.63;79.61;100391.16;657700;217;26296;-73
2021/04/20 09:01:19;;;;;;;41.55;33.02;;;;;;;13.14;78.92;100393.88;644715;217;32575;-74
2021/04/20 09:03:49;;;;;;;41.53;30.50;;;;;;;12.98;80.68;100402.45;651435;217;29132;-74
2021/04/20 09:06:19;;;;;;;43.90;31.27;;;;;;;13.14;80.58;100416.89;653628;217;24791;-74
2021/04/20 09:08:48;;;;;;;44.50;32.40;;;;;;;13.23;78.76;100401.62;643761;221;24811;-74
2021/04/20 09:11:17;;;;;;;45.80;31.67;;;;;;;13.17;76.61;100390.94;641998;221;24848;-74
2021/04/20 09:13:45;;;;;;;43.40;32.43;;;;;;;13.62;77.04;100397.96;648207;221;24808;-74
2021/04/20 09:16:13;;;;;;;48.90;31.90;;;;;;;13.20;76.70;100395.39;652423;217;24858;-74
2021/04/20 09:18:43;;;;;;;41.90;32.20;;;;;;;13.10;76.99;100389.95;641873;221;24825;-74
2021/04/20 09:21:12;;;;;;;47.53;33.87;;;;;;;13.53;77.47;100393.71;647466;221;24805;-74
2021/04/20 09:23:46;;;;;;;48.90;34.07;;;;;;;13.65;77.18;100402.89;648102;218;27972;-73
2021/04/20 09:26:32;;;;;;;44.53;32.70;;;;;;;13.53;77.38;100397.63;650787;218;25083;-74
2021/04/20 09:29:01;;;;;;;45.23;31.83;;;;;;;13.76;75.59;100393.91;638909;222;24996;-74
2021/04/20 09:31:30;;;;;;;42.70;30.20;;;;;;;14.12;75.79;100390.52;653171;217;25021;-73
2021/04/20 09:33:58;;;;;;;43.10;29.23;;;;;;;14.34;75.16;100386.89;653616;217;26962;-71
2021/04/20 09:36:27;;;;;;;44.23;27.73;;;;;;;14.14;75.43;100382.00;655070;217;24758;-74
2021/04/20 09:38:54;;;;;;;41.03;30.40;;;;;;;14.47;74.10;100382.00;653302;217;25133;-71
2021/04/20 09:41:25;;;;;;;41.43;29.60;;;;;;;15.33;73.85;100379.41;647209;221;24812;-74
2021/04/20 09:43:53;;;;;;;35.17;26.63;;;;;;;15.20;70.85;100363.92;636572;221;24834;-74
2021/04/20 09:46:26;;;;;;;37.43;26.37;;;;;;;14.41;73.25;100370.86;642820;221;26897;-74
2021/04/20 09:48:55;;;;;;;38.73;28.40;;;;;;;14.36;73.98;100373.98;655606;217;24795;-71
2021/04/20 09:51:23;;;;;;;37.83;29.27;;;;;;;14.30;75.04;100379.05;647533;221;24829;-74
2021/04/20 09:53:55;;;;;;;37.50;28.10;;;;;;;14.31;72.72;100374.95;640997;221;24816;-74
2021/04/20 09:56:26;;;;;;;39.33;30.60;;;;;;;14.97;71.57;100370.42;630406;222;33277;-73
2021/04/20 09:58:54;;;;;;;37.67;28.98;;;;;;;15.35;68.80;100361.73;652325;215;43255;-74
2021/04/20 10:01:26;;;;;;;39.67;30.03;;;;;;;15.61;70.95;100360.11;645881;221;23719;-74
2021/04/20 10:03:57;;;;;;;37.27;27.60;;;;;;;15.54;69.16;100360.97;639942;220;26974;-73
2021/04/20 10:06:30;;;;;;;42.67;28.40;;;;;;;14.93;71.36;100370.45;639748;221;23801;-73
2021/04/20 10:09:04;;;;;;;33.13;23.37;;;;;;;14.67;69.47;100364.14;654877;217;24757;-73
2021/04/20 10:11:34;;;;;;;30.90;23.00;;;;;;;15.38;67.54;100365.31;648192;217;26977;-74
2021/04/20 10:14:03;;;;;;;29.03;22.37;;;;;;;15.85;65.41;100338.14;642455;221;23829;-73
2021/04/20 10:16:33;;;;;;;30.07;22.50;;;;;;;15.94;65.24;100331.04;649670;218;31221;-73
2021/04/20 10:19:07;;;;;;;32.70;24.83;;;;;;;16.36;67.53;100334.42;649067;218;24845;-73
2021/04/20 10:21:37;;;;;;;34.77;25.70;;;;;;;15.97;63.95;100326.24;644912;218;25028;-74
2021/04/20 10:24:08;;;;;;;33.40;23.80;;;;;;;15.24;68.37;100325.92;639942;221;24837;-74
2021/04/20 10:26:39;;;;;;;31.63;22.13;;;;;;;15.44;65.71;100325.30;653627;217;24779;-73
2021/04/20 10:29:08;;;;;;;30.40;23.23;;;;;;;15.83;67.09;100321.77;641923;221;24808;-74
2021/04/20 10:31:36;;;;;;;26.57;20.93;;;;;;;15.74;64.70;100314.95;652655;218;24782;-74
2021/04/20 10:34:04;;;;;;;27.97;21.47;;;;;;;14.79;65.12;100314.36;646068;219;24944;-73
2021/04/20 10:36:32;;;;;;;30.68;23.95;;;;;;;15.11;64.80;100316.00;644282;218;32658;-73
2021/04/20 10:39:00;;;;;;;27.13;21.47;;;;;;;15.89;64.01;100303.19;651704;218;23679;-74
2021/04/20 10:41:29;;;;;;;28.83;21.57;;;;;;;16.32;64.58;100300.31;637130;222;23822;-74
2021/04/20 10:43:57;;;;;;;27.20;20.77;;;;;;;16.46;62.63;100298.19;641388;220;24835;-74
2021/04/20 10:46:25;;;;;;;25.67;19.60;;;;;;;16.09;61.74;100288.59;649513;221;23811;-74
2021/04/20 10:48:54;;;;;;;30.17;20.60;;;;;;;15.91;63.71;100291.55;640255;221;24836;-74
2021/04/20 10:51:30;;;;;;;27.43;21.10;;;;;;;15.73;62.15;100285.78;645458;222;24775;-74
2021/04/20 10:53:57;;;;;;;27.17;20.73;;;;;;;16.61;65.04;100291.15;650515;218;24984;-75
2021/04/20 10:56:26;;;;;;;25.03;19.10;;;;;;;16.35;62.27;100283.41;652316;218;28017;-74
2021/04/20 10:58:55;;;;;;;26.83;19.83;;;;;;;16.04;60.79;100270.73;647221;218;23799;-77
2021/04/20 11:01:22;;;;;;;25.80;19.13;;;;;;;16.59;60.65;100273.42;656258;217;24824;-75
2021/04/20 11:03:50;;;;;;;24.87;18.90;;;;;;;16.52;60.08;100263.34;660185;217;24806;-74
2021/04/20 11:06:29;;;;;;;26.00;21.55;;;;;;;16.56;61.49;100268.54;651892;217;32528;-74
2021/04/20 11:08:57;;;;;;;30.63;18.00;;;;;;;15.93;61.68;100267.27;650663;218;22682;-74
2021/04/20 11:11:25;;;;;;;22.63;16.37;;;;;;;16.04;60.34;100262.87;651428;217;24819;-75
2021/04/20 11:13:53;;;;;;;26.10;18.03;;;;;;;16.59;61.32;100264.73;648251;221;24750;-75
2021/04/20 11:16:22;;;;;;;24.30;17.60;;;;;;;16.51;60.41;100249.91;638590;220;24837;-74
2021/04/20 11:18:50;;;;;;;22.53;16.13;;;;;;;16.78;59.76;100252.89;645839;221;24905;-75
2021/04/20 11:21:19;;;;;;;20.73;15.40;;;;;;;17.03;60.16;100250.72;644177;220;23843;-75
2021/04/20 11:23:47;;;;;;;23.93;16.60;;;;;;;16.30;59.88;100242.75;640061;221;23881;-78